createdAt,value
2023-05-25T00:01:05.351Z,60.03
2023-05-25T00:03:40.407Z,60.22
2023-05-25T00:06:12.459Z,59.81
2023-05-25T00:08:43.991Z,60.09
2023-05-25T00:11:17.032Z,59.87
2023-05-25T00:13:48.485Z,60.05
2023-05-25T00:16:19.925Z,60.27
2023-05-25T00:18:53.167Z,60.34
2023-05-25T00:21:25.816Z,60.36
2023-05-25T00:23:57.257Z,60.08
2023-05-25T00:26:28.645Z,60.28
2023-05-25T00:29:00.956Z,60.19
2023-05-25T00:31:36.534Z,59.84
2023-05-25T00:34:07.975Z,59.83
2023-05-25T00:36:39.389Z,59.73
2023-05-25T00:39:10.779Z,59.62
2023-05-25T00:41:45.599Z,59.60
2023-05-25T00:44:21.363Z,59.99
2023-05-25T00:46:53.212Z,59.39
2023-05-25T00:49:24.781Z,59.53
2023-05-25T00:51:58.109Z,59.22
2023-05-25T00:54:29.596Z,59.36
2023-05-25T00:57:04.307Z,59.09
2023-05-25T00:59:36.978Z,59.59
2023-05-25T01:02:10.070Z,59.39
2023-05-25T01:04:45.237Z,59.41
2023-05-25T01:07:18.158Z,59.09
2023-05-25T01:09:54.197Z,59.62
2023-05-25T01:12:29.497Z,59.79
2023-05-25T01:15:01.866Z,59.38
2023-05-25T01:17:37.980Z,59.46
2023-05-25T01:20:11.775Z,59.57
2023-05-25T01:22:45.242Z,59.87
2023-05-25T01:25:21.728Z,59.89
2023-05-25T01:28:02.558Z,59.82
2023-05-25T01:30:35.384Z,59.98
2023-05-25T01:33:07.323Z,60.17
2023-05-25T01:35:39.335Z,60.07
2023-05-25T01:38:11.395Z,60.15
2023-05-25T01:40:42.837Z,60.46
2023-05-25T01:43:14.241Z,60.74
2023-05-25T01:45:46.469Z,61.09
2023-05-25T01:48:40.801Z,60.71
2023-05-25T01:51:22.070Z,61.40
2023-05-25T01:53:58.178Z,60.99
2023-05-25T01:56:30.905Z,61.17
2023-05-25T01:59:03.164Z,61.15
2023-05-25T02:01:36.797Z,61.50
2023-05-25T02:04:08.779Z,61.39
2023-05-25T02:06:40.260Z,61.42
2023-05-25T02:09:12.122Z,61.85
2023-05-25T02:11:43.552Z,62.22
2023-05-25T02:14:16.033Z,62.23
2023-05-25T02:16:48.208Z,62.51
2023-05-25T02:19:19.615Z,62.70
2023-05-25T02:21:51.179Z,62.98
2023-05-25T02:24:24.536Z,62.88
2023-05-25T02:26:55.966Z,62.90
2023-05-25T02:29:27.371Z,63.46
2023-05-25T02:31:59.053Z,63.68
2023-05-25T02:34:30.470Z,64.05
2023-05-25T02:37:01.837Z,63.92
2023-05-25T02:39:33.248Z,63.98
2023-05-25T02:42:04.958Z,64.04
2023-05-25T02:44:36.335Z,63.95
2023-05-25T02:47:07.910Z,64.09
2023-05-25T02:49:39.354Z,64.87
2023-05-25T02:52:10.935Z,64.83
2023-05-25T02:54:42.287Z,64.33
2023-05-25T02:57:13.677Z,64.56
2023-05-25T02:59:45.044Z,64.84
2023-05-25T03:02:18.493Z,64.79
2023-05-25T03:04:53.639Z,65.25
2023-05-25T03:07:27.868Z,65.36
2023-05-25T03:09:59.584Z,65.88
2023-05-25T03:12:31.085Z,65.83
2023-05-25T03:15:02.462Z,66.89
2023-05-25T03:17:33.973Z,67.25
2023-05-25T03:20:06.289Z,67.72
2023-05-25T03:22:37.765Z,68.26
2023-05-25T03:25:12.457Z,68.93
2023-05-25T03:27:43.940Z,70.31
2023-05-25T03:30:15.340Z,71.08
2023-05-25T03:32:46.761Z,72.02
2023-05-25T03:35:18.181Z,73.53
2023-05-25T03:37:49.604Z,75.38
2023-05-25T03:40:21.205Z,75.61
2023-05-25T03:42:52.621Z,75.05
2023-05-25T03:45:23.964Z,75.46
2023-05-25T03:47:55.669Z,75.71
2023-05-25T03:50:27.032Z,75.63
2023-05-25T03:52:58.517Z,74.75
2023-05-25T03:55:30.776Z,76.81
2023-05-25T03:58:02.190Z,75.43
2023-05-25T04:00:33.591Z,75.88
2023-05-25T04:03:05.103Z,75.26
2023-05-25T04:05:36.974Z,75.31
2023-05-25T04:08:09.948Z,75.50
2023-05-25T04:10:41.372Z,75.41
2023-05-25T04:13:12.986Z,74.98
2023-05-25T04:15:44.684Z,75.08
2023-05-25T04:18:16.296Z,74.60
2023-05-25T04:20:47.876Z,74.65
2023-05-25T04:23:21.232Z,74.33
2023-05-25T04:25:53.602Z,74.10
2023-05-25T04:28:25.010Z,74.80
2023-05-25T04:30:57.245Z,74.57
2023-05-25T04:33:29.867Z,74.88
2023-05-25T04:36:01.508Z,74.39
2023-05-25T04:38:33.288Z,74.79
2023-05-25T04:41:06.390Z,74.78
2023-05-25T04:43:39.148Z,74.29
2023-05-25T04:46:17.056Z,74.90
2023-05-25T04:48:48.522Z,74.39
2023-05-25T04:51:20.139Z,74.35
2023-05-25T04:53:51.546Z,74.41
2023-05-25T04:56:25.592Z,74.51
2023-05-25T04:58:56.991Z,75.20
2023-05-25T05:01:29.137Z,74.83
2023-05-25T05:04:00.887Z,74.71
2023-05-25T05:06:32.351Z,74.54
2023-05-25T05:09:03.774Z,74.35
2023-05-25T05:11:35.162Z,74.40
2023-05-25T05:14:06.544Z,74.33
2023-05-25T05:16:38.053Z,74.18
2023-05-25T05:19:09.594Z,74.40
2023-05-25T05:21:41.082Z,74.95
2023-05-25T05:24:12.433Z,74.63
2023-05-25T05:26:55.483Z,75.25
2023-05-25T05:29:29.442Z,75.19
2023-05-25T05:32:00.840Z,75.40
2023-05-25T05:34:32.897Z,74.91
2023-05-25T05:37:04.399Z,74.92
2023-05-25T05:39:36.170Z,74.96
2023-05-25T05:42:08.208Z,75.10
2023-05-25T05:44:39.575Z,74.86
2023-05-25T05:47:10.995Z,75.08
2023-05-25T05:49:42.339Z,74.73
2023-05-25T05:52:13.846Z,75.09
2023-05-25T05:54:45.202Z,74.94
2023-05-25T05:57:16.617Z,74.94
2023-05-25T05:59:48.002Z,74.27
2023-05-25T06:02:19.646Z,74.31
2023-05-25T06:04:51.073Z,74.38
2023-05-25T06:07:22.866Z,74.73
2023-05-25T06:09:54.415Z,74.06
2023-05-25T06:12:26.560Z,73.90
2023-05-25T06:14:58.002Z,73.65
2023-05-25T06:17:30.029Z,73.61
2023-05-25T06:20:01.475Z,73.17
2023-05-25T06:22:33.442Z,73.13
2023-05-25T06:25:05.146Z,72.77
2023-05-25T06:27:36.628Z,73.55
2023-05-25T06:30:08.254Z,72.67
2023-05-25T06:32:40.988Z,73.28
2023-05-25T06:35:19.726Z,73.04
2023-05-25T06:37:51.770Z,72.85
2023-05-25T06:40:23.311Z,72.77
2023-05-25T06:42:55.090Z,72.12
2023-05-25T06:45:26.516Z,72.70
2023-05-25T06:47:58.221Z,72.18
2023-05-25T06:50:29.628Z,71.80
2023-05-25T06:53:01.070Z,72.17
2023-05-25T06:55:32.501Z,72.01
2023-05-25T06:58:04.083Z,71.26
2023-05-25T07:00:35.482Z,71.44
2023-05-25T07:03:06.884Z,71.96
2023-05-25T07:05:38.353Z,71.57
2023-05-25T07:08:09.777Z,71.73
2023-05-25T07:10:41.260Z,71.62
2023-05-25T07:13:12.642Z,71.45
2023-05-25T07:15:44.246Z,70.79
2023-05-25T07:18:16.333Z,70.57
2023-05-25T07:20:48.339Z,70.04
2023-05-25T07:23:19.757Z,70.48
2023-05-25T07:25:51.221Z,70.45
2023-05-25T07:28:22.640Z,70.93
2023-05-25T07:30:54.152Z,70.70
2023-05-25T07:33:25.573Z,70.52
2023-05-25T07:35:56.983Z,69.82
2023-05-25T07:38:28.385Z,69.88
2023-05-25T07:40:59.781Z,69.36
2023-05-25T07:43:31.622Z,69.66
2023-05-25T07:46:03.045Z,69.27
2023-05-25T07:48:34.504Z,68.90
2023-05-25T07:51:06.012Z,68.60
2023-05-25T07:53:37.951Z,68.62
2023-05-25T07:56:10.745Z,68.08
2023-05-25T07:58:42.270Z,67.39
2023-05-25T08:01:14.621Z,67.47
2023-05-25T08:03:49.814Z,67.75
2023-05-25T08:06:21.918Z,67.27
2023-05-25T08:08:53.436Z,66.63
2023-05-25T08:11:28.062Z,67.42
2023-05-25T08:14:00.432Z,66.81
2023-05-25T08:16:31.999Z,67.16
2023-05-25T08:19:03.397Z,66.77
2023-05-25T08:21:35.212Z,66.14
2023-05-25T08:24:08.485Z,65.96
2023-05-25T08:26:53.957Z,65.31
2023-05-25T08:29:25.990Z,64.23
2023-05-25T08:31:57.404Z,64.10
2023-05-25T08:34:29.185Z,63.53
2023-05-25T08:37:00.778Z,62.71
2023-05-25T08:39:34.091Z,62.61
2023-05-25T08:42:07.391Z,62.37
2023-05-25T08:44:38.847Z,61.99
2023-05-25T08:47:11.981Z,62.22
2023-05-25T08:49:44.627Z,62.77
2023-05-25T08:52:20.223Z,63.49
2023-05-25T08:54:54.719Z,63.36
2023-05-25T08:57:29.845Z,62.68
2023-05-25T09:00:11.994Z,63.97
2023-05-25T09:02:53.305Z,62.68
2023-05-25T09:05:24.829Z,62.84
2023-05-25T09:07:56.455Z,63.04
2023-05-25T09:10:29.193Z,62.72
2023-05-25T09:13:12.800Z,63.04
2023-05-25T09:15:52.909Z,63.92
2023-05-25T09:18:24.394Z,63.43
2023-05-25T09:20:56.523Z,62.24
2023-05-25T09:23:28.848Z,62.81
2023-05-25T09:26:01.071Z,63.46
2023-05-25T09:28:32.437Z,63.09
2023-05-25T09:31:04.017Z,62.86
2023-05-25T09:33:38.622Z,62.58
2023-05-25T09:36:10.896Z,63.39
2023-05-25T09:38:42.616Z,62.99
2023-05-25T09:41:14.429Z,62.99
2023-05-25T09:43:54.703Z,62.49
2023-05-25T09:46:39.153Z,63.15
2023-05-25T09:49:11.577Z,63.11
2023-05-25T09:51:43.083Z,63.28
2023-05-25T09:54:14.533Z,62.88
2023-05-25T09:56:46.281Z,63.47
2023-05-25T09:59:17.712Z,62.88
2023-05-25T10:01:55.248Z,62.26
2023-05-25T10:04:26.868Z,62.54
2023-05-25T10:06:59.013Z,62.33
2023-05-25T10:09:30.684Z,63.22
2023-05-25T10:12:02.487Z,61.83
2023-05-25T10:14:35.897Z,61.25
2023-05-25T10:17:10.069Z,61.51
2023-05-25T10:19:53.906Z,62.23
2023-05-25T10:22:30.124Z,62.29
2023-05-25T10:25:01.858Z,61.04
2023-05-25T10:27:37.623Z,61.05
2023-05-25T10:30:09.761Z,60.59
2023-05-25T10:32:41.838Z,60.13
2023-05-25T10:35:14.018Z,59.42
2023-05-25T10:37:46.318Z,58.76
2023-05-25T10:40:19.126Z,58.66
2023-05-25T10:42:51.768Z,58.45
2023-05-25T10:45:23.219Z,59.23
2023-05-25T10:47:54.715Z,58.83
2023-05-25T10:50:27.081Z,57.44
2023-05-25T10:53:01.557Z,57.32
2023-05-25T10:55:51.893Z,57.22
2023-05-25T10:58:23.621Z,56.92
2023-05-25T11:01:02.509Z,57.73
2023-05-25T11:03:52.855Z,56.55
2023-05-25T11:06:44.648Z,56.68
2023-05-25T11:09:30.924Z,57.44
2023-05-25T11:12:03.963Z,56.53
2023-05-25T11:14:42.114Z,56.57
2023-05-25T11:17:15.359Z,57.29
2023-05-25T11:19:50.131Z,55.78
2023-05-25T11:22:23.850Z,56.42
2023-05-25T11:24:57.324Z,56.19
2023-05-25T11:27:29.932Z,55.88
2023-05-25T11:30:01.390Z,58.16
2023-05-25T11:32:32.794Z,57.59
2023-05-25T11:35:06.747Z,57.22
2023-05-25T11:37:41.504Z,56.91
2023-05-25T11:40:13.093Z,56.88
2023-05-25T11:42:46.998Z,56.48
2023-05-25T11:45:21.895Z,56.43
2023-05-25T11:47:53.299Z,56.21
2023-05-25T11:50:24.861Z,55.71
2023-05-25T11:52:56.331Z,54.62
2023-05-25T11:55:27.827Z,53.75
2023-05-25T11:57:59.208Z,53.96
2023-05-25T12:00:31.503Z,54.08
2023-05-25T12:03:03.138Z,53.42
2023-05-25T12:05:38.578Z,53.18
2023-05-25T12:08:10.059Z,52.99
2023-05-25T12:10:52.044Z,53.08
2023-05-25T12:13:23.494Z,53.42
2023-05-25T12:15:55.475Z,52.83
2023-05-25T12:18:28.836Z,51.41
2023-05-25T12:21:00.815Z,51.43
2023-05-25T12:23:32.277Z,51.35
2023-05-25T12:26:08.985Z,50.55
2023-05-25T12:28:41.164Z,50.48
2023-05-25T12:31:26.029Z,50.54
2023-05-25T12:34:06.426Z,51.29
2023-05-25T12:36:48.104Z,49.46
2023-05-25T12:39:31.459Z,48.97
2023-05-25T12:42:02.865Z,48.83
2023-05-25T12:44:35.919Z,47.80
2023-05-25T12:47:13.332Z,48.36
2023-05-25T12:49:45.275Z,47.75
2023-05-25T12:52:35.419Z,48.15
2023-05-25T12:55:36.377Z,49.12
2023-05-25T12:58:08.340Z,47.69
2023-05-25T13:00:40.938Z,48.39
2023-05-25T13:03:12.377Z,48.47
2023-05-25T13:05:44.503Z,46.90
2023-05-25T13:08:15.930Z,47.59
2023-05-25T13:10:51.034Z,47.75
2023-05-25T13:13:22.456Z,47.87
2023-05-25T13:15:53.910Z,48.67
2023-05-25T13:18:25.332Z,47.33
2023-05-25T13:20:57.495Z,47.22
2023-05-25T13:23:29.059Z,47.75
2023-05-25T13:26:00.422Z,46.91
2023-05-25T13:28:32.020Z,47.58
2023-05-25T13:31:03.448Z,46.33
2023-05-25T13:33:34.881Z,46.42
2023-05-25T13:36:09.641Z,45.23
2023-05-25T13:38:41.126Z,46.30
2023-05-25T13:41:12.689Z,47.06
2023-05-25T13:43:44.049Z,47.04
2023-05-25T13:46:25.822Z,47.56
2023-05-25T13:49:04.682Z,46.83
2023-05-25T13:51:36.060Z,45.74
2023-05-25T13:54:07.627Z,46.33
2023-05-25T13:56:39.212Z,45.69
2023-05-25T13:59:11.180Z,44.34
2023-05-25T14:01:42.629Z,45.06
2023-05-25T14:04:16.052Z,45.86
2023-05-25T14:06:47.802Z,45.26
2023-05-25T14:09:19.452Z,45.02
2023-05-25T14:11:53.541Z,44.56
2023-05-25T14:14:31.950Z,44.52
2023-05-25T14:17:04.415Z,45.54
2023-05-25T14:19:35.860Z,44.19
2023-05-25T14:22:13.775Z,43.49
2023-05-25T14:24:45.908Z,44.12
2023-05-25T14:27:21.062Z,42.66
2023-05-25T14:29:52.691Z,43.16
2023-05-25T14:32:24.185Z,43.79
2023-05-25T14:34:55.594Z,44.08
2023-05-25T14:37:26.953Z,42.57
2023-05-25T14:40:00.606Z,41.96
2023-05-25T14:42:32.118Z,41.22
2023-05-25T14:45:03.644Z,42.44
2023-05-25T14:47:35.092Z,42.15
2023-05-25T14:50:07.250Z,40.74
2023-05-25T14:52:38.683Z,41.00
2023-05-25T14:55:10.137Z,40.71
2023-05-25T14:57:41.550Z,39.58
2023-05-25T15:00:13.211Z,39.44
2023-05-25T15:02:44.662Z,39.03
2023-05-25T15:05:16.123Z,38.32
2023-05-25T15:07:47.512Z,38.73
2023-05-25T15:10:19.020Z,39.17
2023-05-25T15:12:50.400Z,37.32
2023-05-25T15:15:21.812Z,33.54
2023-05-25T15:17:53.255Z,30.49
2023-05-25T15:20:24.726Z,31.26
2023-05-25T15:22:56.144Z,32.59
2023-05-25T15:28:01.876Z,30.98
2023-05-25T15:30:34.393Z,27.63
2023-05-25T15:33:05.867Z,26.28
2023-05-25T15:35:37.239Z,28.13
2023-05-25T15:38:08.657Z,30.45
2023-05-25T15:40:40.026Z,31.91
2023-05-25T15:43:11.473Z,33.79
2023-05-25T15:45:43.305Z,35.18
2023-05-25T15:48:14.863Z,33.52
2023-05-25T15:50:46.937Z,30.49
2023-05-25T15:53:18.312Z,29.55
2023-05-25T15:55:49.760Z,27.43
2023-05-25T15:58:21.147Z,27.13
2023-05-25T16:00:52.501Z,29.39
2023-05-25T16:03:23.937Z,31.61
2023-05-25T16:05:55.359Z,32.90
2023-05-25T16:08:26.774Z,33.82
2023-05-25T16:10:58.197Z,35.78
2023-05-25T16:13:29.580Z,36.53
2023-05-25T16:16:00.982Z,37.03
2023-05-25T16:18:32.473Z,37.32
2023-05-25T16:21:03.993Z,37.49
2023-05-25T16:23:35.452Z,37.76
2023-05-25T16:26:09.893Z,37.97
2023-05-25T16:28:41.324Z,39.13
2023-05-25T16:31:13.501Z,39.72
2023-05-25T16:33:45.882Z,39.21
2023-05-25T16:36:17.415Z,40.88
2023-05-25T16:38:48.849Z,40.81
2023-05-25T16:41:20.271Z,42.03
2023-05-25T16:43:51.731Z,41.10
2023-05-25T16:46:25.151Z,41.08
2023-05-25T16:48:56.719Z,40.58
2023-05-25T16:51:28.120Z,42.04
2023-05-25T16:53:59.526Z,42.46
2023-05-25T16:56:31.273Z,43.70
2023-05-25T16:59:02.666Z,43.42
2023-05-25T17:01:34.159Z,44.03
2023-05-25T17:04:05.720Z,43.80
2023-05-25T17:06:37.520Z,43.96
2023-05-25T17:09:09.159Z,44.28
2023-05-25T17:11:40.564Z,43.57
2023-05-25T17:14:12.744Z,43.80
2023-05-25T17:16:44.161Z,43.67
2023-05-25T17:19:15.701Z,43.99
2023-05-25T17:21:47.628Z,43.42
2023-05-25T17:24:19.052Z,43.77
2023-05-25T17:26:51.629Z,43.94
2023-05-25T17:29:23.160Z,44.33
2023-05-25T17:31:54.623Z,44.19
2023-05-25T17:34:26.128Z,43.56
2023-05-25T17:36:57.539Z,44.91
2023-05-25T17:39:28.913Z,44.81
2023-05-25T17:42:01.431Z,45.28
2023-05-25T17:44:32.858Z,46.00
2023-05-25T17:47:05.285Z,46.07
2023-05-25T17:49:36.641Z,46.85
2023-05-25T17:52:08.071Z,46.66
2023-05-25T17:54:39.550Z,46.93
2023-05-25T17:57:10.976Z,47.42
2023-05-25T17:59:44.223Z,47.12
2023-05-25T18:02:17.273Z,47.71
2023-05-25T18:04:48.997Z,48.04
2023-05-25T18:07:22.055Z,48.20
2023-05-25T18:09:53.459Z,48.30
2023-05-25T18:12:24.900Z,48.67
2023-05-25T18:14:56.459Z,48.12
2023-05-25T18:17:27.854Z,48.85
2023-05-25T18:19:59.271Z,49.93
2023-05-25T18:22:31.563Z,50.25
2023-05-25T18:25:03.591Z,48.98
2023-05-25T18:27:34.970Z,49.88
2023-05-25T18:30:06.698Z,50.10
2023-05-25T18:32:38.162Z,51.63
2023-05-25T18:35:09.735Z,50.36
2023-05-25T18:37:41.215Z,50.88
2023-05-25T18:40:12.949Z,50.39
2023-05-25T18:42:44.404Z,50.22
2023-05-25T18:45:15.847Z,50.08
2023-05-25T18:47:47.488Z,51.68
2023-05-25T18:50:19.478Z,52.71
2023-05-25T18:52:52.042Z,52.50
2023-05-25T18:55:23.423Z,53.25
2023-05-25T18:57:54.815Z,53.95
2023-05-25T19:00:26.191Z,53.46
2023-05-25T19:02:57.637Z,54.38
2023-05-25T19:05:29.067Z,53.88
2023-05-25T19:08:00.683Z,54.68
2023-05-25T19:10:32.085Z,53.22
2023-05-25T19:13:03.454Z,52.90
2023-05-25T19:15:34.822Z,53.97
2023-05-25T19:18:06.213Z,54.66
2023-05-25T19:20:37.724Z,55.04
2023-05-25T19:23:09.173Z,56.50
2023-05-25T19:25:40.615Z,57.51
2023-05-25T19:28:12.842Z,57.78
2023-05-25T19:30:44.303Z,58.34
2023-05-25T19:33:15.875Z,57.36
2023-05-25T19:35:47.468Z,58.05
2023-05-25T19:38:18.975Z,58.03
2023-05-25T19:40:50.348Z,58.42
2023-05-25T19:43:21.839Z,58.57
2023-05-25T19:45:53.275Z,59.47
2023-05-25T19:48:25.892Z,59.61
2023-05-25T19:50:59.136Z,60.08
2023-05-25T19:53:31.430Z,60.60
2023-05-25T19:56:03.421Z,60.49
2023-05-25T19:58:34.883Z,61.85
2023-05-25T20:01:06.390Z,62.19
2023-05-25T20:03:37.946Z,62.00
2023-05-25T20:06:09.538Z,62.57
2023-05-25T20:08:40.950Z,62.63
2023-05-25T20:11:12.366Z,63.41
2023-05-25T20:13:44.543Z,63.04
2023-05-25T20:16:16.252Z,63.93
2023-05-25T20:18:47.690Z,64.68
2023-05-25T20:21:20.127Z,65.16
2023-05-25T20:23:51.875Z,64.54
2023-05-25T20:26:23.263Z,64.88
2023-05-25T20:28:54.613Z,64.65
2023-05-25T20:31:26.004Z,66.06
2023-05-25T20:33:57.439Z,66.06
2023-05-25T20:36:28.852Z,66.93
2023-05-25T20:39:00.374Z,66.68
2023-05-25T20:41:31.756Z,66.99
2023-05-25T20:44:06.378Z,66.59
2023-05-25T20:46:37.996Z,66.64
2023-05-25T20:49:09.485Z,66.96
2023-05-25T20:51:42.166Z,66.87
2023-05-25T20:54:13.809Z,66.43
2023-05-25T20:56:46.481Z,66.52
2023-05-25T20:59:17.891Z,66.20
2023-05-25T21:01:49.408Z,66.39
2023-05-25T21:04:21.071Z,66.24
2023-05-25T21:06:52.528Z,66.42
2023-05-25T21:09:23.935Z,67.49
2023-05-25T21:11:55.618Z,66.94
2023-05-25T21:14:27.104Z,67.37
2023-05-25T21:16:58.490Z,67.67
2023-05-25T21:19:29.882Z,68.23
2023-05-25T21:22:02.610Z,68.64
2023-05-25T21:24:34.045Z,69.45
2023-05-25T21:27:05.799Z,69.18
2023-05-25T21:29:37.180Z,69.69
2023-05-25T21:32:08.709Z,70.01
2023-05-25T21:34:40.070Z,70.21
2023-05-25T21:37:11.512Z,70.31
2023-05-25T21:39:43.657Z,70.83
2023-05-25T21:42:15.235Z,71.11
2023-05-25T21:44:46.689Z,71.82
2023-05-25T21:47:18.165Z,71.75
2023-05-25T21:49:49.648Z,71.80
2023-05-25T21:52:21.132Z,71.87
2023-05-25T21:54:52.674Z,72.27
2023-05-25T21:57:24.174Z,71.92
2023-05-25T21:59:55.541Z,72.15
2023-05-25T22:02:27.049Z,72.33
2023-05-25T22:04:58.481Z,73.50
2023-05-25T22:07:29.925Z,74.11
2023-05-25T22:10:01.423Z,73.67
2023-05-25T22:12:32.834Z,74.18
2023-05-25T22:15:05.202Z,74.17
2023-05-25T22:17:36.746Z,73.99
2023-05-25T22:20:08.702Z,74.13
2023-05-25T22:22:40.241Z,74.26
2023-05-25T22:25:11.693Z,74.06
2023-05-25T22:27:43.105Z,74.49
2023-05-25T22:30:14.773Z,74.33
2023-05-25T22:32:46.294Z,74.31
2023-05-25T22:35:18.004Z,74.56
2023-05-25T22:37:49.409Z,74.70
2023-05-25T22:40:20.815Z,74.82
2023-05-25T22:42:52.221Z,75.07
2023-05-25T22:45:23.721Z,75.08
2023-05-25T22:47:55.394Z,75.12
2023-05-25T22:50:26.822Z,74.89
2023-05-25T22:52:58.462Z,75.05
2023-05-25T22:55:29.823Z,75.10
2023-05-25T22:58:01.236Z,74.83
2023-05-25T23:00:32.856Z,74.59
2023-05-25T23:03:04.585Z,74.94
2023-05-25T23:05:36.236Z,75.07
2023-05-25T23:08:08.111Z,74.84
2023-05-25T23:10:39.557Z,75.29
2023-05-25T23:13:10.964Z,75.33
2023-05-25T23:15:44.225Z,75.58
2023-05-25T23:18:15.947Z,75.00
2023-05-25T23:20:47.335Z,75.07
2023-05-25T23:23:18.767Z,75.24
2023-05-25T23:25:50.211Z,75.59
2023-05-25T23:28:21.685Z,75.91
2023-05-25T23:30:53.208Z,76.04
2023-05-25T23:33:24.616Z,75.91
2023-05-25T23:35:56.156Z,76.19
2023-05-25T23:38:27.555Z,75.89
2023-05-25T23:40:58.969Z,76.55
2023-05-25T23:43:30.523Z,76.50
2023-05-25T23:46:02.494Z,76.60
2023-05-25T23:48:34.043Z,76.64
2023-05-25T23:51:07.474Z,76.24
2023-05-25T23:53:39.104Z,76.33
2023-05-25T23:56:10.517Z,76.36
2023-05-25T23:58:43.308Z,76.85
